sensor_id;sensor_type;location;lat;lon;timestamp;pressure;altitude;pressure_sealevel;temperature;humidity
64064;BME280;50314;50.618;10.642;2022-09-27T00:01:53;94750.50;;;19.29;26.12
64064;BME280;50314;50.618;10.642;2022-09-27T00:04:19;94754.78;;;19.30;25.94
64064;BME280;50314;50.618;10.642;2022-09-27T00:06:44;94747.84;;;19.29;26.11
64064;BME280;50314;50.618;10.642;2022-09-27T00:09:09;94753.97;;;19.30;26.05
64064;BME280;50314;50.618;10.642;2022-09-27T00:11:37;94742.50;;;19.29;25.96
64064;BME280;50314;50.618;10.642;2022-09-27T00:14:05;94742.69;;;19.28;26.09
64064;BME280;50314;50.618;10.642;2022-09-27T00:16:33;94731.44;;;19.25;26.39
64064;BME280;50314;50.618;10.642;2022-09-27T00:19:00;94736.97;;;19.24;26.37
64064;BME280;50314;50.618;10.642;2022-09-27T00:21:26;94729.78;;;19.24;26.45
64064;BME280;50314;50.618;10.642;2022-09-27T00:23:54;94726.28;;;19.24;26.02
64064;BME280;50314;50.618;10.642;2022-09-27T00:26:19;94715.84;;;19.22;26.06
64064;BME280;50314;50.618;10.642;2022-09-27T00:28:45;94720.97;;;19.24;26.05
64064;BME280;50314;50.618;10.642;2022-09-27T00:31:16;94711.75;;;19.20;26.06
64064;BME280;50314;50.618;10.642;2022-09-27T00:33:45;94704.38;;;19.22;25.97
64064;BME280;50314;50.618;10.642;2022-09-27T00:36:11;94705.59;;;19.19;25.92
64064;BME280;50314;50.618;10.642;2022-09-27T00:38:36;94707.66;;;19.17;26.25
64064;BME280;50314;50.618;10.642;2022-09-27T00:41:01;94700.69;;;19.16;26.48
64064;BME280;50314;50.618;10.642;2022-09-27T00:43:43;94695.16;;;19.11;26.42
64064;BME280;50314;50.618;10.642;2022-09-27T00:46:09;94692.06;;;19.14;26.56
64064;BME280;50314;50.618;10.642;2022-09-27T00:48:36;94684.06;;;19.14;26.04
64064;BME280;50314;50.618;10.642;2022-09-27T00:51:03;94683.25;;;19.14;26.07
64064;BME280;50314;50.618;10.642;2022-09-27T00:53:33;94685.13;;;19.13;26.10
64064;BME280;50314;50.618;10.642;2022-09-27T00:56:05;94671.16;;;19.11;26.22
64064;BME280;50314;50.618;10.642;2022-09-27T00:58:42;94674.06;;;19.10;26.66
64064;BME280;50314;50.618;10.642;2022-09-27T01:01:08;94672.81;;;19.12;26.46
64064;BME280;50314;50.618;10.642;2022-09-27T01:03:48;94673.25;;;19.09;26.19
64064;BME280;50314;50.618;10.642;2022-09-27T01:06:18;94675.69;;;19.11;26.40
64064;BME280;50314;50.618;10.642;2022-09-27T01:08:44;94664.19;;;19.10;26.56
64064;BME280;50314;50.618;10.642;2022-09-27T01:11:34;94661.56;;;19.04;26.72
64064;BME280;50314;50.618;10.642;2022-09-27T01:17:37;94654.00;;;19.00;26.31
64064;BME280;50314;50.618;10.642;2022-09-27T01:28:07;94649.53;;;18.94;26.78
64064;BME280;50314;50.618;10.642;2022-09-27T01:31:06;94645.63;;;18.97;26.38
64064;BME280;50314;50.618;10.642;2022-09-27T01:36:23;94642.56;;;18.93;26.80
64064;BME280;50314;50.618;10.642;2022-09-27T01:47:05;94628.03;;;18.89;26.64
64064;BME280;50314;50.618;10.642;2022-09-27T01:49:41;94620.84;;;18.90;26.70
64064;BME280;50314;50.618;10.642;2022-09-27T01:52:11;94619.59;;;18.92;26.56
64064;BME280;50314;50.618;10.642;2022-09-27T01:54:43;94615.31;;;18.91;26.72
64064;BME280;50314;50.618;10.642;2022-09-27T01:57:12;94613.44;;;18.92;26.23
64064;BME280;50314;50.618;10.642;2022-09-27T01:59:53;94612.25;;;18.88;26.59
64064;BME280;50314;50.618;10.642;2022-09-27T02:02:23;94602.97;;;18.90;26.73
64064;BME280;50314;50.618;10.642;2022-09-27T02:04:51;94596.03;;;18.89;26.31
64064;BME280;50314;50.618;10.642;2022-09-27T02:07:30;94598.91;;;18.88;26.83
64064;BME280;50314;50.618;10.642;2022-09-27T02:10:08;94606.94;;;18.88;26.43
64064;BME280;50314;50.618;10.642;2022-09-27T02:12:40;94598.31;;;18.86;26.13
64064;BME280;50314;50.618;10.642;2022-09-27T02:15:12;94597.25;;;18.87;26.27
64064;BME280;50314;50.618;10.642;2022-09-27T02:20:19;94588.69;;;18.85;26.67
64064;BME280;50314;50.618;10.642;2022-09-27T02:23:01;94588.88;;;18.83;26.82
64064;BME280;50314;50.618;10.642;2022-09-27T02:25:34;94591.34;;;18.85;26.48
64064;BME280;50314;50.618;10.642;2022-09-27T02:28:27;94587.69;;;18.79;26.81
64064;BME280;50314;50.618;10.642;2022-09-27T02:30:55;94581.13;;;18.82;26.42
64064;BME280;50314;50.618;10.642;2022-09-27T02:33:31;94584.41;;;18.77;26.59
64064;BME280;50314;50.618;10.642;2022-09-27T02:35:58;94583.16;;;18.80;26.77
64064;BME280;50314;50.618;10.642;2022-09-27T02:38:24;94580.31;;;18.81;26.53
64064;BME280;50314;50.618;10.642;2022-09-27T02:40:49;94579.47;;;18.81;26.73
64064;BME280;50314;50.618;10.642;2022-09-27T02:43:16;94585.84;;;18.80;26.79
64064;BME280;50314;50.618;10.642;2022-09-27T02:45:55;94584.41;;;18.77;26.59
64064;BME280;50314;50.618;10.642;2022-09-27T02:54:15;94587.31;;;18.69;26.96
64064;BME280;50314;50.618;10.642;2022-09-27T03:04:57;94585.69;;;18.68;26.60
64064;BME280;50314;50.618;10.642;2022-09-27T03:07:24;94593.03;;;18.72;26.46
64064;BME280;50314;50.618;10.642;2022-09-27T03:09:52;94583.41;;;18.71;26.87
64064;BME280;50314;50.618;10.642;2022-09-27T03:12:19;94588.50;;;18.73;26.64
64064;BME280;50314;50.618;10.642;2022-09-27T03:14:59;94582.38;;;18.72;26.79
64064;BME280;50314;50.618;10.642;2022-09-27T03:17:25;94588.75;;;18.71;26.95
64064;BME280;50314;50.618;10.642;2022-09-27T03:19:51;94587.94;;;18.71;27.05
64064;BME280;50314;50.618;10.642;2022-09-27T03:22:16;94586.28;;;18.70;26.97
64064;BME280;50314;50.618;10.642;2022-09-27T03:24:42;94582.78;;;18.69;26.89
64064;BME280;50314;50.618;10.642;2022-09-27T03:27:08;94589.97;;;18.69;26.90
64064;BME280;50314;50.618;10.642;2022-09-27T03:29:34;94586.50;;;18.68;26.76
64064;BME280;50314;50.618;10.642;2022-09-27T03:31:59;94582.78;;;18.69;26.88
64064;BME280;50314;50.618;10.642;2022-09-27T03:34:25;94575.84;;;18.68;27.12
64064;BME280;50314;50.618;10.642;2022-09-27T03:36:50;94580.13;;;18.69;26.90
64064;BME280;50314;50.618;10.642;2022-09-27T03:39:16;94571.31;;;18.69;26.96
64064;BME280;50314;50.618;10.642;2022-09-27T03:41:41;94575.03;;;18.68;27.05
64064;BME280;50314;50.618;10.642;2022-09-27T03:44:07;94568.84;;;18.67;26.87
64064;BME280;50314;50.618;10.642;2022-09-27T03:46:32;94569.69;;;18.68;26.63
64064;BME280;50314;50.618;10.642;2022-09-27T03:48:58;94565.19;;;18.68;27.15
64064;BME280;50314;50.618;10.642;2022-09-27T03:51:23;94563.53;;;18.67;26.79
64064;BME280;50314;50.618;10.642;2022-09-27T03:53:49;94557.59;;;18.65;26.65
64064;BME280;50314;50.618;10.642;2022-09-27T03:56:14;94564.56;;;18.66;27.15
64064;BME280;50314;50.618;10.642;2022-09-27T03:58:40;94558.66;;;18.64;26.73
64064;BME280;50314;50.618;10.642;2022-09-27T04:01:05;94561.09;;;18.66;27.17
64064;BME280;50314;50.618;10.642;2022-09-27T04:03:30;94555.97;;;18.64;27.12
64064;BME280;50314;50.618;10.642;2022-09-27T04:05:56;94556.56;;;18.66;27.10
64064;BME280;50314;50.618;10.642;2022-09-27T04:08:22;94550.66;;;18.64;26.67
64064;BME280;50314;50.618;10.642;2022-09-27T04:10:48;94561.09;;;18.66;26.82
64064;BME280;50314;50.618;10.642;2022-09-27T04:13:13;94554.94;;;18.65;26.69
64064;BME280;50314;50.618;10.642;2022-09-27T04:15:39;94562.31;;;18.63;26.85
64064;BME280;50314;50.618;10.642;2022-09-27T04:18:05;94560.47;;;18.64;26.90
64064;BME280;50314;50.618;10.642;2022-09-27T04:20:31;94562.31;;;18.63;27.15
64064;BME280;50314;50.618;10.642;2022-09-27T04:22:57;94559.06;;;18.61;27.12
64064;BME280;50314;50.618;10.642;2022-09-27T04:25:22;94557.00;;;18.63;27.14
64064;BME280;50314;50.618;10.642;2022-09-27T04:27:48;94552.47;;;18.64;27.12
64064;BME280;50314;50.618;10.642;2022-09-27T04:30:16;94557.00;;;18.63;27.17
64064;BME280;50314;50.618;10.642;2022-09-27T04:32:42;94557.81;;;18.64;27.07
64064;BME280;50314;50.618;10.642;2022-09-27T04:35:09;94556.19;;;18.63;27.04
64064;BME280;50314;50.618;10.642;2022-09-27T04:37:53;94554.75;;;18.60;27.09
64064;BME280;50314;50.618;10.642;2022-09-27T04:40:18;94559.28;;;18.60;27.20
64064;BME280;50314;50.618;10.642;2022-09-27T04:42:46;94560.09;;;18.60;27.24
64064;BME280;50314;50.618;10.642;2022-09-27T04:45:11;94560.09;;;18.60;27.17
64064;BME280;50314;50.618;10.642;2022-09-27T04:47:44;94559.50;;;18.58;26.93
64064;BME280;50314;50.618;10.642;2022-09-27T04:50:10;94565.41;;;18.60;26.86
64064;BME280;50314;50.618;10.642;2022-09-27T04:52:36;94565.41;;;18.60;27.09
64064;BME280;50314;50.618;10.642;2022-09-27T04:55:02;94560.09;;;18.60;26.79
64064;BME280;50314;50.618;10.642;2022-09-27T04:57:28;94566.47;;;18.59;27.06
64064;BME280;50314;50.618;10.642;2022-09-27T04:59:53;94558.69;;;18.58;26.78
64064;BME280;50314;50.618;10.642;2022-09-27T05:02:18;94565.84;;;18.57;27.25
64064;BME280;50314;50.618;10.642;2022-09-27T05:04:44;94563.19;;;18.57;27.02
64064;BME280;50314;50.618;10.642;2022-09-27T05:07:09;94565.84;;;18.57;26.98
64064;BME280;50314;50.618;10.642;2022-09-27T05:09:35;94571.19;;;18.57;26.85
64064;BME280;50314;50.618;10.642;2022-09-27T05:12:00;94573.84;;;18.57;27.25
64064;BME280;50314;50.618;10.642;2022-09-27T05:14:26;94567.69;;;18.57;27.01
64064;BME280;50314;50.618;10.642;2022-09-27T05:16:52;94579.16;;;18.57;26.94
64064;BME280;50314;50.618;10.642;2022-09-27T05:19:18;94574.88;;;18.56;27.25
64064;BME280;50314;50.618;10.642;2022-09-27T05:21:43;94575.09;;;18.54;27.21
64064;BME280;50314;50.618;10.642;2022-09-27T05:24:08;94581.25;;;18.55;26.99
64064;BME280;50314;50.618;10.642;2022-09-27T05:26:34;94582.88;;;18.56;27.01
64064;BME280;50314;50.618;10.642;2022-09-27T05:28:59;94588.22;;;18.56;27.02
64064;BME280;50314;50.618;10.642;2022-09-27T05:31:25;94582.88;;;18.56;26.96
64064;BME280;50314;50.618;10.642;2022-09-27T05:33:51;94593.53;;;18.56;26.86
64064;BME280;50314;50.618;10.642;2022-09-27T05:36:16;94598.88;;;18.56;27.22
64064;BME280;50314;50.618;10.642;2022-09-27T05:38:42;94594.59;;;18.55;26.88
64064;BME280;50314;50.618;10.642;2022-09-27T05:41:08;94585.53;;;18.56;26.87
64064;BME280;50314;50.618;10.642;2022-09-27T05:43:34;94587.41;;;18.55;27.09
64064;BME280;50314;50.618;10.642;2022-09-27T05:46:00;94585.53;;;18.56;27.25
64064;BME280;50314;50.618;10.642;2022-09-27T05:48:26;94585.53;;;18.56;27.18
64064;BME280;50314;50.618;10.642;2022-09-27T05:50:52;94588.22;;;18.56;26.89
64064;BME280;50314;50.618;10.642;2022-09-27T05:53:18;94596.00;;;18.58;27.01
64064;BME280;50314;50.618;10.642;2022-09-27T05:55:43;94592.72;;;18.55;27.04
64064;BME280;50314;50.618;10.642;2022-09-27T05:58:09;94603.38;;;18.55;27.30
64064;BME280;50314;50.618;10.642;2022-09-27T06:00:37;94605.00;;;18.57;27.33
64064;BME280;50314;50.618;10.642;2022-09-27T06:03:04;94617.53;;;18.56;26.93
64064;BME280;50314;50.618;10.642;2022-09-27T06:05:35;94615.09;;;18.54;27.39
64064;BME280;50314;50.618;10.642;2022-09-27T06:08:06;94631.28;;;18.53;27.04
64064;BME280;50314;50.618;10.642;2022-09-27T06:10:33;94636.19;;;18.56;27.03
64064;BME280;50314;50.618;10.642;2022-09-27T06:13:02;94632.94;;;18.54;26.79
64064;BME280;50314;50.618;10.642;2022-09-27T06:15:30;94632.31;;;18.52;26.95
64064;BME280;50314;50.618;10.642;2022-09-27T06:17:56;94634.19;;;18.51;26.95
64064;BME280;50314;50.618;10.642;2022-09-27T06:20:23;94647.28;;;18.53;27.16
64064;BME280;50314;50.618;10.642;2022-09-27T06:22:48;94651.78;;;18.52;27.29
64064;BME280;50314;50.618;10.642;2022-09-27T06:25:14;94646.47;;;18.52;27.15
64064;BME280;50314;50.618;10.642;2022-09-27T06:27:39;94649.94;;;18.53;26.87
64064;BME280;50314;50.618;10.642;2022-09-27T06:30:05;94658.16;;;18.51;27.10
64064;BME280;50314;50.618;10.642;2022-09-27T06:32:30;94655.50;;;18.51;27.25
64064;BME280;50314;50.618;10.642;2022-09-27T06:34:56;94663.28;;;18.53;26.96
64064;BME280;50314;50.618;10.642;2022-09-27T06:37:25;94660.03;;;18.51;27.34
64064;BME280;50314;50.618;10.642;2022-09-27T06:39:54;94671.28;;;18.53;27.00
64064;BME280;50314;50.618;10.642;2022-09-27T06:42:20;94675.59;;;18.54;27.24
64064;BME280;50314;50.618;10.642;2022-09-27T06:44:45;94673.75;;;18.54;27.41
64064;BME280;50314;50.618;10.642;2022-09-27T06:47:17;94681.75;;;18.54;27.29
64064;BME280;50314;50.618;10.642;2022-09-27T06:49:42;94682.56;;;18.55;27.26
64064;BME280;50314;50.618;10.642;2022-09-27T06:52:08;94683.38;;;18.55;27.00
64064;BME280;50314;50.618;10.642;2022-09-27T06:54:33;94688.47;;;18.57;26.94
64064;BME280;50314;50.618;10.642;2022-09-27T06:56:58;94686.66;;;18.58;27.05
64064;BME280;50314;50.618;10.642;2022-09-27T06:59:24;94688.47;;;18.57;26.88
64064;BME280;50314;50.618;10.642;2022-09-27T07:02:08;94696.47;;;18.57;26.87
64064;BME280;50314;50.618;10.642;2022-09-27T07:04:34;94697.09;;;18.59;26.95
64064;BME280;50314;50.618;10.642;2022-09-27T07:06:59;94700.38;;;18.61;26.86
64064;BME280;50314;50.618;10.642;2022-09-27T07:09:25;94704.66;;;18.62;26.89
64064;BME280;50314;50.618;10.642;2022-09-27T07:11:50;94706.28;;;18.63;27.15
64064;BME280;50314;50.618;10.642;2022-09-27T07:14:17;94709.75;;;18.64;27.09
64064;BME280;50314;50.618;10.642;2022-09-27T07:16:44;94714.09;;;18.65;26.99
64064;BME280;50314;50.618;10.642;2022-09-27T07:19:09;94715.94;;;18.64;27.28
64064;BME280;50314;50.618;10.642;2022-09-27T07:21:36;94726.38;;;18.66;27.42
64064;BME280;50314;50.618;10.642;2022-09-27T07:24:01;94727.19;;;18.66;27.41
64064;BME280;50314;50.618;10.642;2022-09-27T07:26:27;94726.38;;;18.66;27.02
64064;BME280;50314;50.618;10.642;2022-09-27T07:28:52;94735.41;;;18.65;26.84
64064;BME280;50314;50.618;10.642;2022-09-27T07:31:18;94738.91;;;18.65;26.85
64064;BME280;50314;50.618;10.642;2022-09-27T07:33:43;94746.91;;;18.65;27.21
64064;BME280;50314;50.618;10.642;2022-09-27T07:36:09;94744.22;;;18.65;27.19
64064;BME280;50314;50.618;10.642;2022-09-27T07:38:35;94750.16;;;18.67;27.28
64064;BME280;50314;50.618;10.642;2022-09-27T07:41:08;94749.34;;;18.67;26.89
64064;BME280;50314;50.618;10.642;2022-09-27T07:43:34;94749.97;;;18.69;26.81
64064;BME280;50314;50.618;10.642;2022-09-27T07:45:59;94755.06;;;18.70;26.97
64064;BME280;50314;50.618;10.642;2022-09-27T07:48:25;94762.06;;;18.71;27.20
64064;BME280;50314;50.618;10.642;2022-09-27T07:50:51;94762.06;;;18.71;26.96
64064;BME280;50314;50.618;10.642;2022-09-27T07:53:17;94764.50;;;18.73;27.21
64064;BME280;50314;50.618;10.642;2022-09-27T07:55:43;94761.00;;;18.72;27.11
64064;BME280;50314;50.618;10.642;2022-09-27T07:58:10;94754.66;;;18.73;26.94
64064;BME280;50314;50.618;10.642;2022-09-27T08:00:38;94769.63;;;18.74;27.09
64064;BME280;50314;50.618;10.642;2022-09-27T08:03:06;94776.78;;;18.74;26.77
64064;BME280;50314;50.618;10.642;2022-09-27T08:05:34;94773.94;;;18.75;27.03
64064;BME280;50314;50.618;10.642;2022-09-27T08:08:00;94775.78;;;18.75;26.64
64064;BME280;50314;50.618;10.642;2022-09-27T08:10:26;94780.09;;;18.76;26.84
64064;BME280;50314;50.618;10.642;2022-09-27T08:12:54;94787.06;;;18.77;27.13
64064;BME280;50314;50.618;10.642;2022-09-27T08:15:20;94783.78;;;18.75;26.94
64064;BME280;50314;50.618;10.642;2022-09-27T08:17:45;94796.09;;;18.76;26.83
64064;BME280;50314;50.618;10.642;2022-09-27T08:20:11;94792.41;;;18.77;26.82
64064;BME280;50314;50.618;10.642;2022-09-27T08:22:40;94794.25;;;18.76;27.01
64064;BME280;50314;50.618;10.642;2022-09-27T08:25:06;94802.06;;;18.78;27.14
64064;BME280;50314;50.618;10.642;2022-09-27T08:27:31;94798.56;;;18.77;26.84
64064;BME280;50314;50.618;10.642;2022-09-27T08:29:57;94800.22;;;18.78;27.31
64064;BME280;50314;50.618;10.642;2022-09-27T08:32:23;94805.53;;;18.78;26.92
64064;BME280;50314;50.618;10.642;2022-09-27T08:34:48;94802.06;;;18.78;27.25
64064;BME280;50314;50.618;10.642;2022-09-27T08:37:14;94814.56;;;18.77;26.93
64064;BME280;50314;50.618;10.642;2022-09-27T08:39:39;94820.50;;;18.80;27.14
64064;BME280;50314;50.618;10.642;2022-09-27T08:42:30;94815.59;;;18.76;27.39
64064;BME280;50314;50.618;10.642;2022-09-27T08:47:41;94823.59;;;18.76;27.34
64064;BME280;50314;50.618;10.642;2022-09-27T08:50:27;94820.31;;;18.74;27.55
64064;BME280;50314;50.618;10.642;2022-09-27T08:53:01;94819.06;;;18.77;27.01
64064;BME280;50314;50.618;10.642;2022-09-27T08:56:05;94828.09;;;18.76;27.16
64064;BME280;50314;50.618;10.642;2022-09-27T08:58:40;94837.53;;;18.78;27.58
64064;BME280;50314;50.618;10.642;2022-09-27T09:01:14;94838.13;;;18.81;27.47
64064;BME280;50314;50.618;10.642;2022-09-27T09:03:49;94829.72;;;18.84;27.35
64064;BME280;50314;50.618;10.642;2022-09-27T09:06:25;94839.78;;;18.82;27.19
64064;BME280;50314;50.618;10.642;2022-09-27T09:15:24;94853.13;;;18.82;27.60
64064;BME280;50314;50.618;10.642;2022-09-27T09:18:10;94859.69;;;18.86;27.49
64064;BME280;50314;50.618;10.642;2022-09-27T09:20:59;94853.91;;;18.89;27.40
64064;BME280;50314;50.618;10.642;2022-09-27T09:26:25;94866.63;;;18.93;27.15
64064;BME280;50314;50.618;10.642;2022-09-27T09:31:37;94868.44;;;18.99;26.88
64064;BME280;50314;50.618;10.642;2022-09-27T09:34:13;94880.13;;;19.05;26.84
64064;BME280;50314;50.618;10.642;2022-09-27T09:39:15;94868.81;;;19.10;26.87
64064;BME280;50314;50.618;10.642;2022-09-27T09:42:23;94888.97;;;19.06;27.28
64064;BME280;50314;50.618;10.642;2022-09-27T09:44:51;94883.78;;;19.11;26.95
64064;BME280;50314;50.618;10.642;2022-09-27T09:47:28;94886.28;;;19.12;27.31
64064;BME280;50314;50.618;10.642;2022-09-27T09:50:02;94880.91;;;19.19;27.04
64064;BME280;50314;50.618;10.642;2022-09-27T09:52:38;94884.56;;;19.24;26.78
64064;BME280;50314;50.618;10.642;2022-09-27T09:55:34;94885.38;;;19.32;27.04
64064;BME280;50314;50.618;10.642;2022-09-27T09:58:18;94891.91;;;19.36;27.10
64064;BME280;50314;50.618;10.642;2022-09-27T10:00:46;94889.03;;;19.44;26.67
64064;BME280;50314;50.618;10.642;2022-09-27T10:03:13;94890.22;;;19.48;26.83
64064;BME280;50314;50.618;10.642;2022-09-27T10:05:42;94882.41;;;19.53;26.80
64064;BME280;50314;50.618;10.642;2022-09-27T10:08:14;94884.78;;;19.68;26.63
64064;BME280;50314;50.618;10.642;2022-09-27T10:10:41;94883.47;;;19.84;26.32
64064;BME280;50314;50.618;10.642;2022-09-27T10:13:09;94885.19;;;20.10;26.32
64064;BME280;50314;50.618;10.642;2022-09-27T10:15:39;94887.97;;;20.47;26.31
64064;BME280;50314;50.618;10.642;2022-09-27T10:18:08;94881.88;;;20.58;26.07
64064;BME280;50314;50.618;10.642;2022-09-27T10:20:44;94887.97;;;20.90;25.86
64064;BME280;50314;50.618;10.642;2022-09-27T10:23:16;94877.19;;;21.33;25.57
64064;BME280;50314;50.618;10.642;2022-09-27T10:25:56;94882.31;;;21.53;25.35
64064;BME280;50314;50.618;10.642;2022-09-27T10:31:06;94885.22;;;21.52;24.63
64064;BME280;50314;50.618;10.642;2022-09-27T10:33:33;94895.13;;;21.51;24.50
64064;BME280;50314;50.618;10.642;2022-09-27T10:36:01;94895.13;;;21.51;24.77
64064;BME280;50314;50.618;10.642;2022-09-27T10:38:34;94890.34;;;21.53;24.79
64064;BME280;50314;50.618;10.642;2022-09-27T10:41:35;94890.25;;;21.60;25.28
64064;BME280;50314;50.618;10.642;2022-09-27T10:44:28;94890.25;;;21.60;25.54
64064;BME280;50314;50.618;10.642;2022-09-27T10:46:58;94894.47;;;21.68;25.33
64064;BME280;50314;50.618;10.642;2022-09-27T10:49:44;94893.66;;;21.67;25.68
64064;BME280;50314;50.618;10.642;2022-09-27T10:52:14;94895.53;;;21.67;25.66
64064;BME280;50314;50.618;10.642;2022-09-27T10:54:41;94894.84;;;21.71;25.67
64064;BME280;50314;50.618;10.642;2022-09-27T10:59:41;94894.84;;;21.71;25.56
64064;BME280;50314;50.618;10.642;2022-09-27T11:02:21;94900.88;;;21.67;25.72
64064;BME280;50314;50.618;10.642;2022-09-27T11:07:30;94901.84;;;21.72;25.42
64064;BME280;50314;50.618;10.642;2022-09-27T11:09:57;94910.28;;;21.76;25.75
64064;BME280;50314;50.618;10.642;2022-09-27T11:12:29;94914.41;;;21.90;25.40
64064;BME280;50314;50.618;10.642;2022-09-27T11:14:58;94905.22;;;21.98;25.10
64064;BME280;50314;50.618;10.642;2022-09-27T11:17:33;94911.97;;;22.00;25.14
64064;BME280;50314;50.618;10.642;2022-09-27T11:25:36;94899.53;;;22.18;24.65
64064;BME280;50314;50.618;10.642;2022-09-27T11:33:32;94899.53;;;22.18;24.06
64064;BME280;50314;50.618;10.642;2022-09-27T11:36:11;94897.56;;;22.13;24.13
64064;BME280;50314;50.618;10.642;2022-09-27T11:44:53;94908.25;;;22.01;24.11
64064;BME280;50314;50.618;10.642;2022-09-27T11:47:49;94902.06;;;22.01;24.08
64064;BME280;50314;50.618;10.642;2022-09-27T11:53:24;94908.38;;;22.07;24.01
64064;BME280;50314;50.618;10.642;2022-09-27T12:09:51;94903.81;;;22.37;23.57
64064;BME280;50314;50.618;10.642;2022-09-27T12:12:21;94900.56;;;22.47;23.89
64064;BME280;50314;50.618;10.642;2022-09-27T12:14:59;94897.63;;;22.48;23.76
64064;BME280;50314;50.618;10.642;2022-09-27T12:17:30;94905.94;;;22.59;23.56
64064;BME280;50314;50.618;10.642;2022-09-27T12:19:59;94909.56;;;22.64;23.37
64064;BME280;50314;50.618;10.642;2022-09-27T12:22:34;94906.41;;;22.67;23.62
64064;BME280;50314;50.618;10.642;2022-09-27T12:25:03;94910.25;;;22.71;23.69
64064;BME280;50314;50.618;10.642;2022-09-27T12:27:41;94906.66;;;22.66;23.54
64064;BME280;50314;50.618;10.642;2022-09-27T12:30:12;94898.72;;;22.71;23.52
64064;BME280;50314;50.618;10.642;2022-09-27T12:35:23;94900.13;;;22.73;22.96
64064;BME280;50314;50.618;10.642;2022-09-27T12:40:40;94896.72;;;22.78;22.91
64064;BME280;50314;50.618;10.642;2022-09-27T12:43:21;94892.41;;;22.77;22.80
64064;BME280;50314;50.618;10.642;2022-09-27T12:51:16;94885.28;;;22.71;22.80
64064;BME280;50314;50.618;10.642;2022-09-27T12:53:51;94880.19;;;22.69;23.33
64064;BME280;50314;50.618;10.642;2022-09-27T12:56:31;94882.97;;;22.63;22.67
64064;BME280;50314;50.618;10.642;2022-09-27T13:02:14;94885.41;;;22.52;23.22
64064;BME280;50314;50.618;10.642;2022-09-27T13:10:47;94882.38;;;22.61;23.38
64064;BME280;50314;50.618;10.642;2022-09-27T13:13:20;94885.66;;;22.63;23.45
64064;BME280;50314;50.618;10.642;2022-09-27T13:15:48;94890.19;;;22.62;23.29
64064;BME280;50314;50.618;10.642;2022-09-27T13:32:38;94895.53;;;22.62;22.97
64064;BME280;50314;50.618;10.642;2022-09-27T13:35:22;94900.22;;;22.55;22.80
64064;BME280;50314;50.618;10.642;2022-09-27T13:37:53;94899.66;;;22.53;22.56
64064;BME280;50314;50.618;10.642;2022-09-27T13:46:02;94899.16;;;22.44;22.94
64064;BME280;50314;50.618;10.642;2022-09-27T13:51:50;94893.09;;;22.37;22.63
64064;BME280;50314;50.618;10.642;2022-09-27T13:54:55;94901.59;;;22.34;23.13
64064;BME280;50314;50.618;10.642;2022-09-27T14:00:42;94897.03;;;22.35;23.01
64064;BME280;50314;50.618;10.642;2022-09-27T14:05:40;94896.81;;;22.36;22.76
64064;BME280;50314;50.618;10.642;2022-09-27T14:08:34;94892.34;;;22.30;22.77
64064;BME280;50314;50.618;10.642;2022-09-27T14:11:03;94896.09;;;22.29;23.05
64064;BME280;50314;50.618;10.642;2022-09-27T14:13:36;94901.09;;;22.25;22.96
64064;BME280;50314;50.618;10.642;2022-09-27T14:16:04;94904.44;;;22.21;22.88
64064;BME280;50314;50.618;10.642;2022-09-27T14:18:31;94905.16;;;22.16;23.26
64064;BME280;50314;50.618;10.642;2022-09-27T14:21:32;94915.38;;;22.08;23.24
64064;BME280;50314;50.618;10.642;2022-09-27T14:26:43;94910.00;;;22.08;23.34
64064;BME280;50314;50.618;10.642;2022-09-27T14:29:20;94911.78;;;22.02;23.18
64064;BME280;50314;50.618;10.642;2022-09-27T14:32:00;94913.41;;;22.03;23.31
64064;BME280;50314;50.618;10.642;2022-09-27T14:34:27;94916.28;;;22.01;23.09
64064;BME280;50314;50.618;10.642;2022-09-27T14:36:52;94908.50;;;22.00;23.42
64064;BME280;50314;50.618;10.642;2022-09-27T14:39:37;94914.09;;;21.98;23.46
64064;BME280;50314;50.618;10.642;2022-09-27T14:42:14;94911.03;;;21.95;23.33
64064;BME280;50314;50.618;10.642;2022-09-27T14:44:43;94913.94;;;21.93;23.49
64064;BME280;50314;50.618;10.642;2022-09-27T14:49:54;94925.22;;;21.84;23.30
64064;BME280;50314;50.618;10.642;2022-09-27T14:52:38;94927.75;;;21.78;23.53
64064;BME280;50314;50.618;10.642;2022-09-27T14:57:32;94926.47;;;21.81;23.52
64064;BME280;50314;50.618;10.642;2022-09-27T15:02:48;94933.19;;;21.72;23.63
64064;BME280;50314;50.618;10.642;2022-09-27T15:05:17;94935.25;;;21.70;23.79
64064;BME280;50314;50.618;10.642;2022-09-27T15:07:45;94937.56;;;21.66;23.77
64064;BME280;50314;50.618;10.642;2022-09-27T15:10:21;94930.06;;;21.56;23.82
64064;BME280;50314;50.618;10.642;2022-09-27T15:12:50;94931.69;;;21.57;23.73
64064;BME280;50314;50.618;10.642;2022-09-27T15:15:23;94930.06;;;21.56;23.76
64064;BME280;50314;50.618;10.642;2022-09-27T15:17:50;94937.53;;;21.54;23.85
64064;BME280;50314;50.618;10.642;2022-09-27T15:20:24;94940.66;;;21.51;23.84
64064;BME280;50314;50.618;10.642;2022-09-27T15:22:51;94932.63;;;21.51;23.73
64064;BME280;50314;50.618;10.642;2022-09-27T15:27:57;94936.19;;;21.45;23.89
64064;BME280;50314;50.618;10.642;2022-09-27T15:30:27;94932.31;;;21.41;24.13
64064;BME280;50314;50.618;10.642;2022-09-27T15:32:54;94937.69;;;21.41;23.84
64064;BME280;50314;50.618;10.642;2022-09-27T15:35:24;94938.41;;;21.30;24.17
64064;BME280;50314;50.618;10.642;2022-09-27T15:37:50;94937.97;;;21.33;24.04
64064;BME280;50314;50.618;10.642;2022-09-27T15:42:56;94941.97;;;21.24;24.05
64064;BME280;50314;50.618;10.642;2022-09-27T15:45:34;94942.88;;;21.18;24.28
64064;BME280;50314;50.618;10.642;2022-09-27T15:48:15;94947.38;;;21.17;24.19
64064;BME280;50314;50.618;10.642;2022-09-27T15:50:41;94946.16;;;21.20;24.01